Neopolis, Brazil
Current Conditions -  °F | °C
As of 6:00 AM on Saturday 25 Oct 2014 (Local Time) from SBAR Reporting Station
Broken Clouds Broken Clouds  
Wind Chill: 73°   Ceiling: 7000
Heat Index: 73°   Visibility: 6mi
Dew Point: 70°   Wind: 3mph
Humidity: 88%   Direction: 230°SW
Pressure: 29.94"   Gusts: NA
Location:  10.32°S, 36.58°W
Report Text: SBAR 250900Z 23003KT 9999 SCT013 BKN070 23/21 Q1014
Loading
Personal Weather Stations






























Interactive Weather Map
Tropical Storm Tracking
New forecast layout! Learn more

10-Day Weather Forecast

Advertisements
Track Severe Weather on mobile